createdAt,value
2023-03-13T00:01:13.992Z,8.90
2023-03-13T00:03:42.157Z,8.80
2023-03-13T00:06:11.832Z,8.80
2023-03-13T00:08:40.150Z,8.80
2023-03-13T00:11:10.091Z,8.80
2023-03-13T00:13:38.346Z,8.70
2023-03-13T00:16:08.449Z,8.70
2023-03-13T00:18:37.123Z,8.70
2023-03-13T00:21:06.965Z,8.70
2023-03-13T00:23:37.683Z,8.70
2023-03-13T00:26:07.941Z,8.70
2023-03-13T00:28:36.792Z,8.60
2023-03-13T10:15:50.707Z,24.20
2023-03-13T10:18:21.686Z,24.30
2023-03-13T10:32:06.320Z,24.20
2023-03-13T10:34:50.449Z,24.30
2023-03-13T10:37:22.688Z,24.20
2023-03-13T10:42:29.310Z,23.70
2023-03-13T10:45:00.273Z,23.30
2023-03-13T10:47:34.838Z,23.00
2023-03-13T10:50:04.140Z,22.70
2023-03-13T10:52:35.609Z,22.60
2023-03-13T10:55:05.937Z,22.80
2023-03-13T10:57:36.232Z,22.80
2023-03-13T11:00:26.840Z,23.30
2023-03-13T11:02:56.529Z,23.50
2023-03-13T11:05:45.646Z,24.40
2023-03-13T11:08:21.202Z,24.80
2023-03-13T11:10:55.800Z,24.80
2023-03-13T11:13:42.007Z,25.00
2023-03-13T11:16:20.522Z,25.30
2023-03-13T11:19:21.420Z,25.10
2023-03-13T11:22:02.036Z,24.80
2023-03-13T11:24:39.831Z,25.50
2023-03-13T11:27:16.835Z,26.00
2023-03-13T11:29:55.964Z,25.70
2023-03-13T11:32:28.409Z,25.30
2023-03-13T11:35:01.544Z,24.50
2023-03-13T11:37:34.886Z,24.00
2023-03-13T11:40:16.233Z,23.30
2023-03-13T11:42:55.092Z,22.60
2023-03-13T11:45:48.747Z,22.30
2023-03-13T11:48:25.341Z,21.90
2023-03-13T11:50:59.905Z,21.60
2023-03-13T11:53:43.640Z,21.40
2023-03-13T11:56:16.978Z,21.40
2023-03-13T11:59:21.652Z,21.30
2023-03-13T12:01:54.797Z,21.00
2023-03-13T12:04:27.973Z,20.80
2023-03-13T12:07:04.827Z,20.60
2023-03-13T12:09:35.849Z,20.60
2023-03-13T12:12:11.872Z,20.60
2023-03-13T12:14:45.615Z,20.70
2023-03-13T12:17:18.322Z,20.70
2023-03-13T12:19:52.293Z,20.50
2023-03-13T12:22:28.298Z,20.60
2023-03-13T12:25:03.742Z,20.60
2023-03-13T12:27:38.168Z,20.50
2023-03-13T12:30:15.729Z,20.40
2023-03-13T12:32:50.760Z,20.40
2023-03-13T12:35:22.872Z,20.50
2023-03-13T12:37:59.089Z,20.50
2023-03-13T12:40:32.702Z,20.40
2023-03-13T12:43:05.674Z,20.30
2023-03-13T12:45:35.136Z,20.40
2023-03-13T12:48:40.820Z,20.30
2023-03-13T12:51:20.548Z,20.30
2023-03-13T12:54:19.896Z,20.20
2023-03-13T12:57:03.000Z,20.00
2023-03-13T12:59:36.054Z,20.00
2023-03-13T13:02:14.818Z,20.00
2023-03-13T13:04:46.791Z,20.20
2023-03-13T13:07:24.805Z,20.20
2023-03-13T13:10:15.657Z,20.40
2023-03-13T13:12:44.884Z,20.50
2023-03-13T13:15:20.741Z,20.60
2023-03-13T13:18:15.586Z,20.60
2023-03-13T13:20:49.632Z,20.60
2023-03-13T13:23:37.554Z,20.60
2023-03-13T13:26:48.562Z,20.50
2023-03-13T13:29:59.438Z,20.40
2023-03-13T13:32:41.172Z,20.50
2023-03-13T13:35:34.715Z,20.70
2023-03-13T13:38:39.843Z,20.60
2023-03-13T13:41:40.301Z,20.70
2023-03-13T13:44:27.230Z,20.70
2023-03-13T13:46:57.416Z,20.60
2023-03-13T13:49:32.894Z,20.50
2023-03-13T13:52:36.162Z,20.50
2023-03-13T13:55:20.733Z,20.40
2023-03-13T13:57:51.262Z,20.30
2023-03-13T14:00:24.537Z,20.20
2023-03-13T14:02:53.695Z,20.20
2023-03-13T14:05:26.978Z,20.10
2023-03-13T14:08:01.581Z,20.10
2023-03-13T14:10:39.584Z,20.10
2023-03-13T14:13:16.579Z,20.10
2023-03-13T14:15:46.378Z,20.10
2023-03-13T14:18:21.922Z,20.10
2023-03-13T14:21:00.137Z,20.10
2023-03-13T14:23:47.347Z,20.00
2023-03-13T14:26:18.682Z,20.10
2023-03-13T14:28:48.560Z,20.00
2023-03-13T14:31:27.912Z,20.00
2023-03-13T14:33:57.311Z,20.00
2023-03-13T14:36:27.305Z,20.00
2023-03-13T14:38:57.393Z,20.00
2023-03-13T14:41:30.452Z,19.90
2023-03-13T14:44:06.347Z,19.90
2023-03-13T14:46:36.368Z,19.80
2023-03-13T14:49:10.195Z,19.80
2023-03-13T14:51:41.235Z,19.70
2023-03-13T14:54:26.595Z,19.70
2023-03-13T14:57:04.911Z,19.70
2023-03-13T14:59:33.123Z,19.60
2023-03-13T15:02:02.575Z,19.60
2023-03-13T15:04:50.281Z,19.60
2023-03-13T15:07:20.108Z,19.60
2023-03-13T15:09:49.487Z,19.60
2023-03-13T15:12:19.569Z,19.60
2023-03-13T15:14:49.138Z,19.70
2023-03-13T15:17:20.301Z,19.60
2023-03-13T15:19:53.652Z,19.70
2023-03-13T15:22:28.018Z,19.70
2023-03-13T15:25:05.681Z,19.60
2023-03-13T15:27:35.041Z,19.60
2023-03-13T15:30:03.246Z,19.50
2023-03-13T15:32:34.833Z,19.50
2023-03-13T15:35:03.769Z,19.50
2023-03-13T15:37:33.323Z,19.50
2023-03-13T15:40:02.802Z,19.60
2023-03-13T15:42:30.766Z,19.50
2023-03-13T15:44:58.878Z,19.60
2023-03-13T15:47:27.714Z,19.60
2023-03-13T15:49:55.650Z,19.60
2023-03-13T15:52:24.182Z,19.50
2023-03-13T15:54:53.793Z,19.40
2023-03-13T15:57:24.077Z,19.40
2023-03-13T15:59:52.809Z,19.30
2023-03-13T16:02:23.161Z,19.30
2023-03-13T16:04:52.015Z,19.30
2023-03-13T16:07:21.864Z,19.20
2023-03-13T16:09:49.986Z,19.20
2023-03-13T16:12:19.318Z,19.20
2023-03-13T16:14:47.270Z,19.10
2023-03-13T16:17:17.900Z,19.10
2023-03-13T16:19:46.597Z,19.00
2023-03-13T16:22:14.778Z,18.90
2023-03-13T16:24:43.475Z,18.90
2023-03-13T16:27:15.712Z,18.80
2023-03-13T16:29:45.959Z,18.70
2023-03-13T16:32:16.126Z,18.60
2023-03-13T16:34:44.248Z,18.60
2023-03-13T16:37:16.517Z,18.50
2023-03-13T16:39:45.715Z,18.40
2023-03-13T16:42:14.246Z,18.30
2023-03-13T16:44:42.349Z,18.30
2023-03-13T16:47:20.395Z,18.20
2023-03-13T16:49:48.431Z,18.10
2023-03-13T16:52:17.335Z,18.10
2023-03-13T16:54:46.107Z,18.10
2023-03-13T16:57:16.164Z,18.10
2023-03-13T16:59:44.278Z,18.00
2023-03-13T17:02:18.769Z,17.90
2023-03-13T17:04:48.210Z,17.90
2023-03-13T17:07:20.899Z,17.70
2023-03-13T17:09:49.115Z,17.80
2023-03-13T17:12:17.673Z,17.80
2023-03-13T17:14:46.105Z,17.70
2023-03-13T17:17:17.420Z,17.60
2023-03-13T17:19:45.584Z,17.40
2023-03-13T17:22:14.528Z,17.30
2023-03-13T17:24:44.007Z,17.20
2023-03-13T17:27:13.697Z,17.10
2023-03-13T17:29:42.188Z,17.00
2023-03-13T17:32:11.411Z,16.80
2023-03-13T17:34:41.663Z,16.70
2023-03-13T17:37:16.347Z,16.60
2023-03-13T17:39:44.959Z,16.50
2023-03-13T17:42:13.511Z,16.50
2023-03-13T17:44:42.331Z,16.50
2023-03-13T17:47:15.797Z,16.30
2023-03-13T17:49:45.767Z,16.20
2023-03-13T17:52:15.065Z,16.20
2023-03-13T17:54:43.780Z,16.10
2023-03-13T17:57:16.381Z,16.00
2023-03-13T17:59:45.052Z,15.90
2023-03-13T18:02:14.911Z,15.90
2023-03-13T18:04:43.884Z,15.90
2023-03-13T18:07:21.638Z,15.80
2023-03-13T18:09:49.665Z,15.70
2023-03-13T18:12:18.406Z,15.70
2023-03-13T18:14:46.725Z,15.60
2023-03-13T18:17:17.765Z,15.50
2023-03-13T18:19:46.063Z,15.50
2023-03-13T18:22:17.417Z,15.40
2023-03-13T18:24:46.286Z,15.40
2023-03-13T18:27:15.673Z,15.30
2023-03-13T18:29:43.984Z,15.20
2023-03-13T18:32:15.954Z,15.30
2023-03-13T18:34:44.691Z,15.20
2023-03-13T18:37:21.661Z,15.10
2023-03-13T18:39:51.324Z,15.00
2023-03-13T18:42:19.641Z,15.00
2023-03-13T18:44:47.841Z,14.90
2023-03-13T18:47:17.855Z,14.90
2023-03-13T18:49:46.946Z,14.80
2023-03-13T18:52:17.377Z,14.80
2023-03-13T18:54:45.994Z,14.70
2023-03-13T18:57:15.774Z,14.60
2023-03-13T18:59:44.437Z,14.60
2023-03-13T19:02:15.102Z,14.60
2023-03-13T19:04:43.530Z,14.50
2023-03-13T19:07:14.793Z,14.50
2023-03-13T19:09:46.776Z,14.40
2023-03-13T19:12:16.731Z,14.40
2023-03-13T19:14:44.982Z,14.40
2023-03-13T19:17:24.033Z,14.30
2023-03-13T19:19:57.124Z,14.30
2023-03-13T19:22:25.993Z,14.20
2023-03-13T19:24:55.778Z,14.20
2023-03-13T19:27:23.927Z,14.10
2023-03-13T19:29:51.977Z,14.10
2023-03-13T19:32:20.728Z,14.10
2023-03-13T19:34:48.665Z,14.10
2023-03-13T19:37:19.004Z,14.00
2023-03-13T19:39:47.154Z,14.00
2023-03-13T19:42:16.407Z,13.90
2023-03-13T19:44:44.827Z,13.90
2023-03-13T19:47:15.593Z,13.90
2023-03-13T19:49:45.545Z,13.90
2023-03-13T19:52:13.578Z,13.80
2023-03-13T19:54:41.617Z,13.70
2023-03-13T19:57:11.923Z,13.70
2023-03-13T19:59:41.473Z,13.60
2023-03-13T20:02:11.068Z,13.60
2023-03-13T20:04:39.746Z,13.50
2023-03-13T20:07:08.250Z,13.40
2023-03-13T20:09:36.828Z,13.40
2023-03-13T20:12:05.499Z,13.30
2023-03-13T20:14:34.020Z,13.30
2023-03-13T20:17:04.705Z,13.30
2023-03-13T20:19:33.134Z,13.20
2023-03-13T20:22:03.748Z,13.20
2023-03-13T20:24:33.650Z,13.20
2023-03-13T20:27:01.899Z,13.20
2023-03-13T20:29:30.043Z,13.20
2023-03-13T20:32:00.161Z,13.20
2023-03-13T20:34:29.766Z,13.20
2023-03-13T20:36:59.805Z,13.20
2023-03-13T20:39:28.378Z,13.20
2023-03-13T20:41:56.349Z,13.10
2023-03-13T20:44:24.524Z,13.10
2023-03-13T20:46:52.542Z,13.10
2023-03-13T20:49:20.533Z,13.10
2023-03-13T20:51:50.011Z,13.00
2023-03-13T20:54:18.134Z,13.00
2023-03-13T20:56:46.186Z,13.00
2023-03-13T20:59:14.120Z,13.00
2023-03-13T21:01:44.102Z,12.90
2023-03-13T21:04:12.198Z,12.90
2023-03-13T21:06:40.346Z,12.90
2023-03-13T21:09:09.815Z,12.90
2023-03-13T21:11:37.792Z,12.90
2023-03-13T21:14:06.034Z,12.90
2023-03-13T21:16:34.209Z,12.90
2023-03-13T21:19:02.309Z,12.90
2023-03-13T21:21:30.241Z,12.90
2023-03-13T21:23:58.468Z,12.80
2023-03-13T21:26:27.956Z,12.80
2023-03-13T21:28:55.881Z,12.80
2023-03-13T21:31:24.080Z,12.80
2023-03-13T21:33:52.286Z,12.80
2023-03-13T21:36:21.857Z,12.80
2023-03-13T21:38:51.180Z,12.80
2023-03-13T21:41:20.938Z,12.70
2023-03-13T21:43:50.405Z,12.80
2023-03-13T21:46:19.958Z,12.70
2023-03-13T21:48:48.265Z,12.70
2023-03-13T21:51:16.607Z,12.70
2023-03-13T21:53:45.151Z,12.80
2023-03-13T21:56:15.763Z,12.80
2023-03-13T21:58:45.410Z,12.90
2023-03-13T22:01:15.828Z,12.80
2023-03-13T22:03:43.951Z,12.90
2023-03-13T22:06:16.384Z,13.00
2023-03-13T22:08:44.477Z,12.90
2023-03-13T22:11:12.823Z,13.00
2023-03-13T22:13:41.632Z,13.00
2023-03-13T22:16:11.694Z,12.90
2023-03-13T22:18:42.238Z,12.70
2023-03-13T22:21:10.613Z,12.60
2023-03-13T22:23:38.690Z,12.60
2023-03-13T22:26:07.325Z,12.50
2023-03-13T22:28:35.275Z,12.50
2023-03-13T22:31:03.917Z,12.50
2023-03-13T22:33:32.262Z,12.50
2023-03-13T22:36:02.138Z,12.50
2023-03-13T22:38:30.373Z,12.50
2023-03-13T22:40:59.642Z,12.50
2023-03-13T22:43:28.038Z,12.50
2023-03-13T22:45:56.163Z,12.50
2023-03-13T22:48:24.389Z,12.50
2023-03-13T22:51:01.998Z,12.60
2023-03-13T22:53:30.572Z,12.60
2023-03-13T22:55:58.573Z,12.60
2023-03-13T22:58:26.951Z,12.60
2023-03-13T23:00:55.687Z,12.60
2023-03-13T23:03:24.355Z,12.60
2023-03-13T23:05:52.527Z,12.60
2023-03-13T23:08:22.837Z,12.70
2023-03-13T23:10:51.220Z,12.60
2023-03-13T23:13:19.316Z,12.60
2023-03-13T23:15:55.494Z,12.60
2023-03-13T23:18:25.059Z,12.60
2023-03-13T23:20:53.372Z,12.50
2023-03-13T23:23:22.852Z,12.60
2023-03-13T23:25:50.987Z,12.50
2023-03-13T23:28:18.881Z,12.60
2023-03-13T23:30:46.924Z,12.60
2023-03-13T23:33:14.906Z,12.60
2023-03-13T23:35:44.011Z,12.60
2023-03-13T23:38:12.390Z,12.60
2023-03-13T23:40:41.924Z,12.60
2023-03-13T23:43:09.835Z,12.60
2023-03-13T23:45:37.992Z,12.40
2023-03-13T23:48:06.450Z,12.50
2023-03-13T23:50:34.349Z,12.30
2023-03-13T23:53:02.452Z,12.30
2023-03-13T23:55:30.384Z,12.20
2023-03-13T23:57:59.891Z,12.30
